KBAK

Columbus Municipal Airport

Columbus, Indiana, USA
METAR KBAK 220145Z 00000KT 10SM SCT095 22/14 A3011 RMK LAST
Observed Flight Rules
Sep-22 @ 01:45 UTC (2 hours ago) Visual Flight Rules
Visibility Clouds
10 miles
Temperatures Readings
Current 22°C / 72°F
Dewpoint 14°C / 57°F
Humidity 61%
Altimeter 30.11" Hg
Pressure 1020 hPa
Elevation 200
METAR KBAK 220145Z 00000KT 10SM SCT095 22/14 A3011 RMK LAST
Observed Flight Rules
Sep-22 @ 01:45 UTC
(2 hours ago)
VFR
Clouds
Temperature Dewpoint
22°C / 72°F 14°C / 57°F
Humidity Altimeter Pressure
61% 30.11" Hg 1020 hPa